createdAt,value
2022-12-08T00:00:33.269Z,3.73
2022-12-08T00:02:36.417Z,3.68
2022-12-08T00:04:59.579Z,3.67
2022-12-08T00:07:19.999Z,3.62
2022-12-08T00:09:23.701Z,3.58
2022-12-08T00:11:26.689Z,3.56
2022-12-08T00:13:29.690Z,3.54
2022-12-08T00:15:34.099Z,3.54
2022-12-08T00:17:37.116Z,3.54
2022-12-08T00:19:41.097Z,3.48
2022-12-08T00:21:44.175Z,3.50
2022-12-08T00:23:47.275Z,3.48
2022-12-08T00:25:50.334Z,3.47
2022-12-08T00:27:53.495Z,3.48
2022-12-08T00:29:56.460Z,3.46
2022-12-08T00:32:00.972Z,3.47
2022-12-08T00:34:04.140Z,3.48
2022-12-08T00:36:08.058Z,3.51
2022-12-08T00:38:11.031Z,3.50
2022-12-08T00:40:14.176Z,3.48
2022-12-08T00:42:17.510Z,3.46
2022-12-08T00:44:20.772Z,3.45
2022-12-08T00:46:23.783Z,3.45
2022-12-08T00:48:28.211Z,3.43
2022-12-08T00:50:32.645Z,3.45
2022-12-08T00:52:35.615Z,3.47
2022-12-08T00:54:38.805Z,3.46
2022-12-08T00:56:41.849Z,3.46
2022-12-08T00:58:44.889Z,3.51
2022-12-08T01:00:47.889Z,3.50
2022-12-08T01:02:51.015Z,3.52
2022-12-08T01:04:55.526Z,3.55
2022-12-08T01:06:58.540Z,3.58
2022-12-08T01:09:02.496Z,3.58
2022-12-08T01:11:06.051Z,3.58
2022-12-08T01:13:09.124Z,3.58
2022-12-08T01:15:12.484Z,3.59
2022-12-08T01:17:15.476Z,3.58
2022-12-08T01:19:18.710Z,3.58
2022-12-08T01:21:23.121Z,3.60
2022-12-08T01:23:26.127Z,3.61
2022-12-08T01:25:29.119Z,3.63
2022-12-08T01:27:32.163Z,3.63
2022-12-08T01:29:35.557Z,3.60
2022-12-08T01:31:38.722Z,3.64
2022-12-08T01:33:42.104Z,3.59
2022-12-08T01:35:45.267Z,3.59
2022-12-08T01:37:51.440Z,3.56
2022-12-08T01:39:54.431Z,3.54
2022-12-08T01:41:57.392Z,3.54
2022-12-08T01:44:02.205Z,3.52
2022-12-08T01:46:05.557Z,3.50
2022-12-08T01:48:12.399Z,3.51
2022-12-08T01:50:17.273Z,3.53
2022-12-08T01:52:25.037Z,3.56
2022-12-08T01:54:31.833Z,3.54
2022-12-08T01:56:39.746Z,3.56
2022-12-08T01:58:46.449Z,3.58
2022-12-08T02:00:50.233Z,3.58
2022-12-08T02:02:56.578Z,3.55
2022-12-08T02:04:59.751Z,3.54
2022-12-08T02:07:07.948Z,3.54
2022-12-08T02:09:12.014Z,3.54
2022-12-08T02:11:17.227Z,3.55
2022-12-08T02:13:21.568Z,3.51
2022-12-08T02:15:32.637Z,3.44
2022-12-08T02:17:50.676Z,3.35
2022-12-08T02:20:21.319Z,3.30
2022-12-08T02:22:29.463Z,3.29
2022-12-08T02:24:38.420Z,3.29
2022-12-08T02:27:09.520Z,3.29
2022-12-08T02:29:36.302Z,3.23
2022-12-08T02:31:52.115Z,3.18
2022-12-08T02:34:06.428Z,3.18
2022-12-08T02:36:15.820Z,3.12
2022-12-08T02:38:22.868Z,3.08
2022-12-08T02:40:29.969Z,3.05
2022-12-08T02:42:36.588Z,3.03
2022-12-08T02:44:42.933Z,3.04
2022-12-08T02:46:57.286Z,2.98
2022-12-08T02:49:02.150Z,2.94
2022-12-08T02:51:06.782Z,2.90
2022-12-08T02:55:19.694Z,2.83
2022-12-08T02:57:33.171Z,2.77
2022-12-08T02:59:49.027Z,2.76
2022-12-08T03:02:11.404Z,2.72
2022-12-08T03:04:23.830Z,2.73
2022-12-08T03:06:29.960Z,2.71
2022-12-08T03:08:36.418Z,2.66
2022-12-08T03:10:43.341Z,2.61
2022-12-08T03:12:50.657Z,2.61
2022-12-08T03:14:55.323Z,2.58
2022-12-08T03:16:59.020Z,2.54
2022-12-08T03:19:04.676Z,2.54
2022-12-08T03:21:10.454Z,2.49
2022-12-08T03:23:15.372Z,2.48
2022-12-08T03:25:22.202Z,2.46
2022-12-08T03:27:27.520Z,2.45
2022-12-08T03:29:30.795Z,2.48
2022-12-08T03:31:35.751Z,2.50
2022-12-08T03:33:40.755Z,2.49
2022-12-08T03:35:44.340Z,2.47
2022-12-08T03:37:48.881Z,2.46
2022-12-08T03:39:51.849Z,2.45
2022-12-08T03:41:54.906Z,2.44
2022-12-08T03:43:59.421Z,2.44
2022-12-08T03:46:02.581Z,2.46
2022-12-08T03:48:05.826Z,2.44
2022-12-08T03:50:09.758Z,2.44
2022-12-08T03:52:12.802Z,2.40
2022-12-08T03:54:17.128Z,2.38
2022-12-08T03:56:24.350Z,2.32
2022-12-08T03:58:28.471Z,2.32
2022-12-08T04:00:33.838Z,2.35
2022-12-08T04:02:36.898Z,2.34
2022-12-08T04:04:39.990Z,2.36
2022-12-08T04:06:43.085Z,2.42
2022-12-08T04:08:46.188Z,2.36
2022-12-08T04:10:50.586Z,2.28
2022-12-08T04:12:53.580Z,2.22
2022-12-08T04:14:56.515Z,2.19
2022-12-08T04:16:59.504Z,2.15
2022-12-08T04:19:02.625Z,2.11
2022-12-08T04:21:05.806Z,2.12
2022-12-08T04:23:12.002Z,2.08
2022-12-08T04:25:15.488Z,2.08
2022-12-08T04:27:19.821Z,2.07
2022-12-08T04:29:22.798Z,2.00
2022-12-08T04:31:25.802Z,1.97
2022-12-08T04:33:28.976Z,1.98
2022-12-08T04:35:32.507Z,1.97
2022-12-08T04:37:35.498Z,1.95
2022-12-08T04:39:38.469Z,1.89
2022-12-08T04:41:41.447Z,1.87
2022-12-08T04:43:45.735Z,1.86
2022-12-08T04:45:48.725Z,1.83
2022-12-08T04:47:51.785Z,1.78
2022-12-08T04:49:54.783Z,1.79
2022-12-08T04:51:57.753Z,1.79
2022-12-08T04:54:00.788Z,1.79
2022-12-08T04:56:03.929Z,1.79
2022-12-08T04:58:07.041Z,1.77
2022-12-08T05:00:14.699Z,1.73
2022-12-08T05:02:17.787Z,1.69
2022-12-08T05:04:20.880Z,1.71
2022-12-08T05:06:24.628Z,1.69
2022-12-08T05:08:27.699Z,1.71
2022-12-08T05:10:30.690Z,1.70
2022-12-08T05:12:33.649Z,1.69
2022-12-08T05:14:36.763Z,1.71
2022-12-08T05:16:41.240Z,1.68
2022-12-08T05:18:44.512Z,1.69
2022-12-08T05:20:47.845Z,1.63
2022-12-08T05:22:50.875Z,1.62
2022-12-08T05:24:53.804Z,1.62
2022-12-08T05:26:56.741Z,1.60
2022-12-08T05:28:59.688Z,1.58
2022-12-08T05:31:02.795Z,1.55
2022-12-08T05:33:07.195Z,1.53
2022-12-08T05:35:10.689Z,1.47
2022-12-08T05:37:13.719Z,1.43
2022-12-08T05:39:16.967Z,1.40
2022-12-08T05:41:21.622Z,1.43
2022-12-08T05:43:24.808Z,1.42
2022-12-08T05:45:28.057Z,1.38
2022-12-08T05:47:35.890Z,1.40
2022-12-08T05:49:40.664Z,1.39
2022-12-08T05:51:43.867Z,1.39
2022-12-08T05:53:47.642Z,1.38
2022-12-08T05:55:50.631Z,1.34
2022-12-08T05:57:57.364Z,1.35
2022-12-08T06:00:00.711Z,1.32
2022-12-08T06:02:04.130Z,1.33
2022-12-08T06:04:07.423Z,1.33
2022-12-08T06:06:11.813Z,1.34
2022-12-08T06:08:14.962Z,1.31
2022-12-08T06:10:18.303Z,1.30
2022-12-08T06:12:21.833Z,1.28
2022-12-08T06:14:24.823Z,1.28
2022-12-08T06:16:28.981Z,1.28
2022-12-08T06:18:33.026Z,1.24
2022-12-08T06:20:36.185Z,1.22
2022-12-08T06:22:40.624Z,1.23
2022-12-08T06:24:43.726Z,1.20
2022-12-08T06:26:46.954Z,1.20
2022-12-08T06:28:50.399Z,1.24
2022-12-08T06:30:53.402Z,1.28
2022-12-08T06:32:56.486Z,1.30
2022-12-08T06:34:59.449Z,1.30
2022-12-08T06:37:02.460Z,1.29
2022-12-08T06:39:06.969Z,1.27
2022-12-08T06:41:10.029Z,1.26
2022-12-08T06:43:12.040Z,1.24
2022-12-08T06:45:16.746Z,1.21
2022-12-08T06:47:24.647Z,1.21
2022-12-08T06:49:29.076Z,1.23
2022-12-08T06:51:33.736Z,1.22
2022-12-08T06:53:36.894Z,1.19
2022-12-08T06:56:01.322Z,1.21
2022-12-08T06:58:04.343Z,1.13
2022-12-08T07:00:08.658Z,1.12
2022-12-08T07:02:12.399Z,1.07
2022-12-08T07:04:15.481Z,1.04
2022-12-08T07:06:21.780Z,1.07
2022-12-08T07:08:25.009Z,1.05
2022-12-08T07:10:28.202Z,1.00
2022-12-08T07:12:32.541Z,0.96
2022-12-08T07:14:35.607Z,0.97
2022-12-08T07:16:39.325Z,1.00
2022-12-08T07:18:42.963Z,1.02
2022-12-08T07:20:46.056Z,1.04
2022-12-08T07:22:50.142Z,1.10
2022-12-08T07:24:53.142Z,1.16
2022-12-08T07:26:56.111Z,1.20
2022-12-08T07:29:01.337Z,1.25
2022-12-08T07:31:06.003Z,1.23
2022-12-08T07:33:09.184Z,1.22
2022-12-08T07:35:12.554Z,1.17
2022-12-08T07:37:15.591Z,1.18
2022-12-08T07:39:18.571Z,1.17
2022-12-08T07:41:23.690Z,1.19
2022-12-08T07:43:27.234Z,1.25
2022-12-08T07:45:32.019Z,1.28
2022-12-08T07:47:35.119Z,1.32
2022-12-08T07:49:38.115Z,1.39
2022-12-08T07:51:42.216Z,1.52
2022-12-08T07:53:53.206Z,1.70
2022-12-08T07:55:56.763Z,1.94
2022-12-08T07:57:59.752Z,2.12
2022-12-08T08:00:03.804Z,2.26
2022-12-08T08:02:26.962Z,2.36
2022-12-08T08:04:30.154Z,2.45
2022-12-08T08:06:34.512Z,2.54
2022-12-08T08:08:37.504Z,2.56
2022-12-08T08:10:40.538Z,2.55
2022-12-08T08:12:43.611Z,2.51
2022-12-08T08:14:46.687Z,2.47
2022-12-08T08:16:49.858Z,2.44
2022-12-08T08:18:54.664Z,2.40
2022-12-08T08:20:58.135Z,2.40
2022-12-08T08:23:01.303Z,2.36
2022-12-08T08:25:04.817Z,2.31
2022-12-08T08:27:07.924Z,2.30
2022-12-08T08:29:11.050Z,2.33
2022-12-08T08:31:14.170Z,2.39
2022-12-08T08:33:17.295Z,2.42
2022-12-08T08:35:21.593Z,2.54
2022-12-08T08:37:24.666Z,2.75
2022-12-08T08:39:30.355Z,2.98
2022-12-08T08:41:33.428Z,3.25
2022-12-08T08:43:38.552Z,3.45
2022-12-08T08:45:42.396Z,3.66
2022-12-08T08:47:45.403Z,3.82
2022-12-08T08:49:48.661Z,3.99
2022-12-08T08:51:53.156Z,4.01
2022-12-08T08:53:56.204Z,4.07
2022-12-08T08:56:02.444Z,4.13
2022-12-08T08:58:05.722Z,4.31
2022-12-08T09:00:10.773Z,4.46
2022-12-08T09:02:17.251Z,4.63
2022-12-08T09:04:20.963Z,4.80
2022-12-08T09:06:24.820Z,4.90
2022-12-08T09:08:29.365Z,5.01
2022-12-08T09:10:32.633Z,5.06
2022-12-08T09:12:35.657Z,5.09
2022-12-08T09:14:38.798Z,5.13
2022-12-08T09:16:42.567Z,5.20
2022-12-08T09:18:45.836Z,5.26
2022-12-08T09:20:48.948Z,5.23
2022-12-08T09:22:52.169Z,5.30
2022-12-08T09:24:56.593Z,5.42
2022-12-08T09:26:59.621Z,5.57
2022-12-08T09:29:02.777Z,5.67
2022-12-08T09:31:06.124Z,5.74
2022-12-08T09:33:10.226Z,5.84
2022-12-08T09:35:13.444Z,5.90
2022-12-08T09:37:16.709Z,5.99
2022-12-08T09:39:19.740Z,6.04
2022-12-08T09:41:40.288Z,6.10
2022-12-08T09:43:54.099Z,6.20
2022-12-08T09:45:57.310Z,6.28
2022-12-08T09:48:04.431Z,6.32
2022-12-08T09:50:14.078Z,6.36
2022-12-08T09:52:21.832Z,6.43
2022-12-08T09:54:30.735Z,6.52
2022-12-08T09:56:37.691Z,6.58
2022-12-08T09:58:47.654Z,6.62
2022-12-08T10:00:50.713Z,6.67
2022-12-08T10:02:53.879Z,6.73
2022-12-08T10:04:58.027Z,6.79
2022-12-08T10:07:05.844Z,6.86
2022-12-08T10:09:22.671Z,6.94
2022-12-08T10:11:31.121Z,6.99
2022-12-08T10:13:39.964Z,7.01
2022-12-08T10:15:47.264Z,7.00
2022-12-08T10:17:52.045Z,6.97
2022-12-08T10:19:58.985Z,6.86
2022-12-08T10:22:02.581Z,6.69
2022-12-08T10:24:13.032Z,6.60
2022-12-08T10:26:18.386Z,6.56
2022-12-08T10:28:21.364Z,6.56
2022-12-08T10:30:25.803Z,6.56
2022-12-08T10:32:35.078Z,6.58
2022-12-08T10:35:05.852Z,6.65
2022-12-08T10:37:10.832Z,6.73
2022-12-08T10:39:32.432Z,6.86
2022-12-08T10:41:35.678Z,6.94
2022-12-08T10:43:43.921Z,7.01
2022-12-08T10:45:48.538Z,7.01
2022-12-08T10:47:59.400Z,7.00
2022-12-08T10:50:21.110Z,7.01
2022-12-08T10:52:24.404Z,7.01
2022-12-08T10:54:29.654Z,7.04
2022-12-08T10:56:33.241Z,7.03
2022-12-08T10:58:40.476Z,6.99
2022-12-08T11:00:43.565Z,6.96
2022-12-08T11:03:02.064Z,6.94
2022-12-08T11:05:05.354Z,6.93
2022-12-08T11:07:10.992Z,6.91
2022-12-08T11:09:37.832Z,6.84
2022-12-08T11:11:45.898Z,6.83
2022-12-08T11:13:49.967Z,6.83
2022-12-08T11:15:53.995Z,6.85
2022-12-08T11:18:04.096Z,6.83
2022-12-08T11:20:21.738Z,6.81
2022-12-08T11:22:27.403Z,6.81
2022-12-08T11:24:34.690Z,6.76
2022-12-08T11:26:40.499Z,6.75
2022-12-08T11:28:43.574Z,6.71
2022-12-08T11:30:49.133Z,6.67
2022-12-08T11:32:54.759Z,6.67
2022-12-08T11:35:02.660Z,6.65
2022-12-08T11:37:06.784Z,6.61
2022-12-08T11:39:11.598Z,6.61
2022-12-08T11:41:17.638Z,6.61
2022-12-08T11:43:24.259Z,6.63
2022-12-08T11:45:30.859Z,6.63
2022-12-08T11:47:37.747Z,6.62
2022-12-08T11:49:42.461Z,6.64
2022-12-08T11:51:49.646Z,6.67
2022-12-08T11:54:06.363Z,6.71
2022-12-08T11:56:16.454Z,6.73
2022-12-08T11:58:21.609Z,6.73
2022-12-08T12:00:25.119Z,6.75
2022-12-08T12:02:30.040Z,6.76
2022-12-08T12:04:34.829Z,6.80
2022-12-08T12:07:09.046Z,6.81
2022-12-08T12:09:16.591Z,6.83
2022-12-08T12:11:39.944Z,6.86
2022-12-08T12:14:00.722Z,6.87
2022-12-08T12:16:31.553Z,6.87
2022-12-08T12:18:40.323Z,6.83
2022-12-08T12:20:49.209Z,6.80
2022-12-08T12:22:57.940Z,6.79
2022-12-08T12:25:01.247Z,6.78
2022-12-08T12:27:09.142Z,6.79
2022-12-08T12:29:17.419Z,6.78
2022-12-08T12:31:24.586Z,6.81
2022-12-08T12:33:28.864Z,6.80
2022-12-08T12:35:34.874Z,6.84
2022-12-08T12:37:40.619Z,6.85
2022-12-08T12:39:51.688Z,6.86
2022-12-08T12:41:57.520Z,6.87
2022-12-08T12:44:40.735Z,6.87
2022-12-08T12:46:55.568Z,6.88
2022-12-08T12:49:45.785Z,6.89
2022-12-08T12:51:55.300Z,6.91
2022-12-08T12:54:21.772Z,6.91
2022-12-08T12:56:51.899Z,6.94
2022-12-08T12:58:55.353Z,6.93
2022-12-08T13:01:31.666Z,6.93
2022-12-08T13:03:36.015Z,6.94
2022-12-08T13:05:49.782Z,6.97
2022-12-08T13:07:55.249Z,6.97
2022-12-08T13:10:01.631Z,6.97
2022-12-08T13:12:11.528Z,6.97
2022-12-08T13:14:28.384Z,6.95
2022-12-08T13:16:34.350Z,6.95
2022-12-08T13:18:39.168Z,6.95
2022-12-08T13:20:44.249Z,6.96
2022-12-08T13:23:05.177Z,6.95
2022-12-08T13:25:47.648Z,6.91
2022-12-08T13:27:55.253Z,6.94
2022-12-08T13:30:31.599Z,6.95
2022-12-08T13:33:17.239Z,6.97
2022-12-08T13:35:19.181Z,6.96
2022-12-08T13:37:27.269Z,6.97
2022-12-08T13:39:35.107Z,6.99
2022-12-08T13:41:40.197Z,6.98
2022-12-08T13:44:20.064Z,7.00
2022-12-08T13:47:02.841Z,6.99
2022-12-08T13:50:15.613Z,6.94
2022-12-08T13:58:28.056Z,6.89
2022-12-08T14:00:32.837Z,6.90
2022-12-08T14:02:40.823Z,6.89
2022-12-08T14:07:13.021Z,6.89
2022-12-08T14:09:18.420Z,6.90
2022-12-08T14:11:34.465Z,6.89
2022-12-08T14:13:37.586Z,6.90
2022-12-08T14:15:42.091Z,6.90
2022-12-08T14:17:51.869Z,6.89
2022-12-08T14:19:56.860Z,6.90
2022-12-08T14:22:01.534Z,6.90
2022-12-08T14:24:04.913Z,6.89
2022-12-08T14:26:08.178Z,6.87
2022-12-08T14:28:11.816Z,6.87
2022-12-08T14:30:21.228Z,6.83
2022-12-08T14:32:31.363Z,6.79
2022-12-08T14:34:40.552Z,6.81
2022-12-08T14:36:43.771Z,6.81
2022-12-08T14:38:46.944Z,6.81
2022-12-08T14:40:51.737Z,6.81
2022-12-08T14:43:05.255Z,6.81
2022-12-08T14:45:12.706Z,6.81
2022-12-08T14:47:20.947Z,6.81
2022-12-08T14:49:34.856Z,6.79
2022-12-08T14:51:38.007Z,6.78
2022-12-08T14:53:42.845Z,6.77
2022-12-08T14:55:47.559Z,6.75
2022-12-08T14:57:50.554Z,6.75
2022-12-08T14:59:53.682Z,6.73
2022-12-08T15:02:13.881Z,6.73
2022-12-08T15:04:20.900Z,6.72
2022-12-08T15:06:25.786Z,6.70
2022-12-08T15:08:29.931Z,6.67
2022-12-08T15:10:38.135Z,6.63
2022-12-08T15:12:41.493Z,6.58
2022-12-08T15:14:56.559Z,6.54
2022-12-08T15:16:59.707Z,6.49
2022-12-08T15:19:08.808Z,6.48
2022-12-08T15:21:14.934Z,6.46
2022-12-08T15:23:30.737Z,6.43
2022-12-08T15:25:35.043Z,6.42
2022-12-08T15:27:48.335Z,6.42
2022-12-08T15:29:53.898Z,6.42
2022-12-08T15:31:58.740Z,6.39
2022-12-08T15:34:02.287Z,6.41
2022-12-08T15:36:05.813Z,6.39
2022-12-08T15:38:18.229Z,6.39
2022-12-08T15:40:26.039Z,6.37
2022-12-08T15:42:29.169Z,6.37
2022-12-08T15:44:33.005Z,6.32
2022-12-08T15:46:36.261Z,6.29
2022-12-08T15:48:39.530Z,6.28
2022-12-08T15:50:42.708Z,6.28
2022-12-08T15:52:45.885Z,6.29
2022-12-08T15:54:50.211Z,6.27
2022-12-08T15:57:18.698Z,6.25
2022-12-08T15:59:20.780Z,6.25
2022-12-08T16:01:24.100Z,6.26
2022-12-08T16:06:20.527Z,6.29
2022-12-08T16:08:44.561Z,6.28
2022-12-08T16:11:24.188Z,6.28
2022-12-08T16:15:53.637Z,6.26
2022-12-08T16:18:02.634Z,6.25
2022-12-08T16:20:08.564Z,6.25
2022-12-08T16:22:51.718Z,6.24
2022-12-08T16:24:41.488Z,6.20
2022-12-08T16:27:58.110Z,6.17
2022-12-08T16:29:09.669Z,6.12
2022-12-08T16:31:17.744Z,6.09
2022-12-08T16:33:24.869Z,6.04
2022-12-08T16:35:29.232Z,5.99
2022-12-08T16:37:32.438Z,5.99
2022-12-08T16:39:38.726Z,5.98
2022-12-08T16:42:01.907Z,5.99
2022-12-08T16:44:07.377Z,5.98
2022-12-08T16:46:18.870Z,5.96
2022-12-08T16:48:22.763Z,5.95
2022-12-08T16:50:27.378Z,5.90
2022-12-08T16:52:30.476Z,5.85
2022-12-08T16:54:33.503Z,5.86
2022-12-08T16:56:36.629Z,5.85
2022-12-08T16:58:39.902Z,5.84
2022-12-08T17:00:43.408Z,5.85
2022-12-08T17:02:49.656Z,5.83
2022-12-08T17:04:54.030Z,5.80
2022-12-08T17:06:58.222Z,5.79
2022-12-08T17:09:01.992Z,5.78
2022-12-08T17:11:10.254Z,5.79
2022-12-08T17:13:16.899Z,5.77
2022-12-08T17:15:23.815Z,5.76
2022-12-08T17:17:27.045Z,5.72
2022-12-08T17:19:31.464Z,5.73
2022-12-08T17:21:35.611Z,5.72
2022-12-08T17:23:40.909Z,5.71
2022-12-08T17:25:45.708Z,5.74
2022-12-08T17:27:48.805Z,5.74
2022-12-08T17:29:52.024Z,5.75
2022-12-08T17:31:55.120Z,5.74
2022-12-08T17:33:59.385Z,5.72
2022-12-08T17:36:04.126Z,5.72
2022-12-08T17:38:07.144Z,5.71
2022-12-08T17:40:10.938Z,5.70
2022-12-08T17:42:14.001Z,5.70
2022-12-08T17:44:18.365Z,5.69
2022-12-08T17:46:22.551Z,5.67
2022-12-08T17:48:25.738Z,5.65
2022-12-08T17:50:28.774Z,5.62
2022-12-08T17:52:33.193Z,5.63
2022-12-08T17:54:36.453Z,5.63
2022-12-08T17:56:39.599Z,5.63
2022-12-08T17:58:42.757Z,5.64
2022-12-08T18:00:45.944Z,5.63
2022-12-08T18:02:49.012Z,5.64
2022-12-08T18:04:52.068Z,5.65
2022-12-08T18:06:55.322Z,5.65
2022-12-08T18:09:00.839Z,5.66
2022-12-08T18:11:04.655Z,5.67
2022-12-08T18:13:07.829Z,5.67
2022-12-08T18:15:13.547Z,5.66
2022-12-08T18:17:16.989Z,5.64
2022-12-08T18:19:20.331Z,5.64
2022-12-08T18:21:23.962Z,5.62
2022-12-08T18:23:27.163Z,5.63
2022-12-08T18:25:31.692Z,5.63
2022-12-08T18:27:39.915Z,5.60
2022-12-08T18:29:45.938Z,5.61
2022-12-08T18:31:50.157Z,5.62
2022-12-08T18:33:53.505Z,5.63
2022-12-08T18:35:56.579Z,5.62
2022-12-08T18:38:00.192Z,5.60
2022-12-08T18:40:03.619Z,5.57
2022-12-08T18:42:22.543Z,5.55
2022-12-08T18:44:26.249Z,5.52
2022-12-08T18:46:29.428Z,5.46
2022-12-08T18:48:32.516Z,5.42
2022-12-08T18:50:35.765Z,5.38
2022-12-08T18:52:38.883Z,5.38
2022-12-08T18:55:05.053Z,5.38
2022-12-08T18:57:05.279Z,5.38
2022-12-08T18:59:12.266Z,5.38
2022-12-08T19:01:15.651Z,5.35
2022-12-08T19:03:18.744Z,5.35
2022-12-08T19:05:21.777Z,5.33
2022-12-08T19:07:24.857Z,5.34
2022-12-08T19:09:28.991Z,5.35
2022-12-08T19:11:32.174Z,5.35
2022-12-08T19:13:35.264Z,5.35
2022-12-08T19:15:39.831Z,5.33
2022-12-08T19:17:42.904Z,5.31
2022-12-08T19:19:45.975Z,5.30
2022-12-08T19:21:49.154Z,5.31
2022-12-08T19:23:52.760Z,5.28
2022-12-08T19:25:55.847Z,5.26
2022-12-08T19:28:01.087Z,5.26
2022-12-08T19:30:05.608Z,5.23
2022-12-08T19:32:10.443Z,5.20
2022-12-08T19:34:14.698Z,5.19
2022-12-08T19:36:19.904Z,5.23
2022-12-08T19:38:23.072Z,5.23
2022-12-08T19:40:46.788Z,5.20
2022-12-08T19:43:07.474Z,5.17
2022-12-08T19:45:12.849Z,5.12
2022-12-08T19:47:17.338Z,5.08
2022-12-08T19:49:20.454Z,5.10
2022-12-08T19:51:23.550Z,5.10
2022-12-08T19:53:26.662Z,5.08
2022-12-08T19:55:30.295Z,5.06
2022-12-08T19:57:33.805Z,5.05
2022-12-08T19:59:36.944Z,5.03
2022-12-08T20:01:40.394Z,5.00
2022-12-08T20:03:45.274Z,5.02
2022-12-08T20:05:51.055Z,5.02
2022-12-08T20:07:56.105Z,5.00
2022-12-08T20:09:59.373Z,4.98
2022-12-08T20:12:02.737Z,4.97
2022-12-08T20:14:06.244Z,4.95
2022-12-08T20:16:09.950Z,4.94
2022-12-08T20:18:14.978Z,4.93
2022-12-08T20:20:19.905Z,4.91
2022-12-08T20:22:23.140Z,4.87
2022-12-08T20:24:26.311Z,4.79
2022-12-08T20:26:29.472Z,4.76
2022-12-08T20:28:32.702Z,4.74
2022-12-08T20:30:36.154Z,4.71
2022-12-08T20:32:39.279Z,4.69
2022-12-08T20:34:42.439Z,4.67
2022-12-08T20:36:47.248Z,4.65
2022-12-08T20:38:51.669Z,4.64
2022-12-08T20:40:54.933Z,4.56
2022-12-08T20:42:58.483Z,4.49
2022-12-08T20:45:01.724Z,4.43
2022-12-08T20:47:05.036Z,4.43
2022-12-08T20:49:08.781Z,4.43
2022-12-08T20:51:14.257Z,4.42
2022-12-08T20:53:18.974Z,4.42
2022-12-08T20:55:22.514Z,4.42
2022-12-08T20:57:26.041Z,4.41
2022-12-08T20:59:29.283Z,4.38
2022-12-08T21:01:32.528Z,4.34
2022-12-08T21:03:35.989Z,4.33
2022-12-08T21:05:39.882Z,4.29
2022-12-08T21:07:43.306Z,4.27
2022-12-08T21:09:48.388Z,4.28
2022-12-08T21:11:51.828Z,4.28
2022-12-08T21:13:55.015Z,4.27
2022-12-08T21:15:58.883Z,4.26
2022-12-08T21:18:02.476Z,4.25
2022-12-08T21:20:08.246Z,4.24
2022-12-08T21:22:12.553Z,4.20
2022-12-08T21:24:16.392Z,4.16
2022-12-08T21:26:25.826Z,4.11
2022-12-08T21:28:29.525Z,4.06
2022-12-08T21:30:32.736Z,4.05
2022-12-08T21:32:36.264Z,4.00
2022-12-08T21:34:39.510Z,3.97
2022-12-08T21:36:42.758Z,3.94
2022-12-08T21:38:46.526Z,3.92
2022-12-08T21:40:49.761Z,3.91
2022-12-08T21:42:53.403Z,3.88
2022-12-08T21:44:56.653Z,3.82
2022-12-08T21:46:59.815Z,3.71
2022-12-08T21:49:03.143Z,3.67
2022-12-08T21:51:06.613Z,3.63
2022-12-08T21:53:10.844Z,3.60
2022-12-08T21:55:14.729Z,3.53
2022-12-08T21:57:17.992Z,3.51
2022-12-08T21:59:22.724Z,3.48
2022-12-08T22:01:26.136Z,3.45
2022-12-08T22:03:30.088Z,3.41
2022-12-08T22:05:33.606Z,3.43
2022-12-08T22:07:39.038Z,3.42
2022-12-08T22:09:42.774Z,3.41
2022-12-08T22:11:46.089Z,3.42
2022-12-08T22:13:49.567Z,3.41
2022-12-08T22:15:58.379Z,3.37
2022-12-08T22:18:01.686Z,3.30
2022-12-08T22:20:06.599Z,3.28
2022-12-08T22:22:10.232Z,3.24
2022-12-08T22:24:13.359Z,3.21
2022-12-08T22:26:16.644Z,3.15
2022-12-08T22:28:19.720Z,3.07
2022-12-08T22:30:22.766Z,3.05
2022-12-08T22:32:27.301Z,3.04
2022-12-08T22:34:30.509Z,2.97
2022-12-08T22:36:33.933Z,2.98
2022-12-08T22:38:36.991Z,2.93
2022-12-08T22:40:41.202Z,2.91
2022-12-08T22:42:44.213Z,2.91
2022-12-08T22:44:47.253Z,2.89
2022-12-08T22:46:50.255Z,2.87
2022-12-08T22:48:55.714Z,2.84
2022-12-08T22:50:59.689Z,2.82
2022-12-08T22:53:02.957Z,2.74
2022-12-08T22:55:06.977Z,2.70
2022-12-08T22:57:10.301Z,2.66
2022-12-08T22:59:13.487Z,2.65
2022-12-08T23:01:25.022Z,2.62
2022-12-08T23:03:28.296Z,2.62
2022-12-08T23:05:35.183Z,2.62
2022-12-08T23:07:38.566Z,2.59
2022-12-08T23:09:41.751Z,2.55
2022-12-08T23:11:44.980Z,2.56
2022-12-08T23:13:48.143Z,2.50
2022-12-08T23:15:51.359Z,2.47
2022-12-08T23:17:54.658Z,2.45
2022-12-08T23:19:57.727Z,2.45
2022-12-08T23:22:02.095Z,2.46
2022-12-08T23:24:05.948Z,2.44
2022-12-08T23:26:16.987Z,2.43
2022-12-08T23:28:20.193Z,2.43
2022-12-08T23:30:23.202Z,2.40
2022-12-08T23:32:26.758Z,2.40
2022-12-08T23:34:29.838Z,2.42
2022-12-08T23:36:33.005Z,2.42
2022-12-08T23:38:37.457Z,2.36
2022-12-08T23:40:40.570Z,2.37
2022-12-08T23:42:43.851Z,2.37
2022-12-08T23:44:46.982Z,2.36
2022-12-08T23:46:50.364Z,2.35
2022-12-08T23:48:53.777Z,2.34
2022-12-08T23:50:57.597Z,2.33
2022-12-08T23:53:00.663Z,2.32
2022-12-08T23:55:05.643Z,2.29
2022-12-08T23:57:09.045Z,2.29
2022-12-08T23:59:12.075Z,2.27
